Time;durP1;ratioP1;P1;durP2;ratioP2;P2;SDS_P1;SDS_P2;PMS_P1;PMS_P2;Temp;Humidity;BMP_temperature;BMP_pressure;BME280_temperature;BME280_humidity;BME280_pressure;Samples;Min_cycle;Max_cycle;Signal;HPM_P1;HPM_P2
2021/03/09 00:01:06;;;;;;;21.25;11.75;;;;;;;1.13;69.79;96429.63;5050156;28;20051;-69
2021/03/09 00:03:32;;;;;;;20.10;11.25;;;;;;;1.11;69.84;96431.75;5049400;28;20064;-69
2021/03/09 00:05:58;;;;;;;19.80;10.88;;;;;;;1.09;69.86;96422.34;5050914;28;20045;-69
2021/03/09 00:08:24;;;;;;;21.90;11.55;;;;;;;1.09;69.97;96416.97;5049393;28;20526;-69
2021/03/09 00:10:50;;;;;;;21.38;11.52;;;;;;;1.08;69.96;96426.91;5050546;28;20111;-69
2021/03/09 00:13:16;;;;;;;22.58;12.23;;;;;;;1.06;69.99;96412.94;5049313;28;20041;-69
2021/03/09 00:15:43;;;;;;;19.65;11.15;;;;;;;1.06;70.08;96412.94;5050398;28;20110;-69
2021/03/09 00:18:10;;;;;;;22.13;12.68;;;;;;;1.04;69.73;96413.22;5049407;28;20041;-69
2021/03/09 00:20:36;;;;;;;21.92;12.30;;;;;;;1.03;69.65;96414.25;5050364;28;20048;-69
2021/03/09 00:23:04;;;;;;;22.00;11.88;;;;;;;0.99;69.98;96406.97;5050179;28;20056;-69
2021/03/09 00:25:31;;;;;;;19.60;11.77;;;;;;;0.97;70.00;96414.47;5049318;28;20048;-68
2021/03/09 00:27:57;;;;;;;22.40;11.70;;;;;;;0.95;70.06;96397.84;5050221;28;20493;-68
2021/03/09 00:30:23;;;;;;;24.20;12.57;;;;;;;0.95;69.86;96395.16;5048762;28;20118;-68
2021/03/09 00:32:49;;;;;;;24.05;11.75;;;;;;;0.95;69.62;96395.16;5050600;28;20052;-68
2021/03/09 00:35:16;;;;;;;21.35;11.63;;;;;;;0.91;69.82;96391.38;5049056;28;20048;-68
2021/03/09 00:37:41;;;;;;;21.23;11.75;;;;;;;0.89;69.92;96385.44;5049944;28;20095;-68
2021/03/09 00:40:08;;;;;;;21.20;10.77;;;;;;;0.88;69.91;96383.81;5049103;28;20080;-69
2021/03/09 00:42:34;;;;;;;19.65;11.50;;;;;;;0.87;69.60;96382.22;5048586;28;20052;-68
2021/03/09 00:45:00;;;;;;;23.38;11.63;;;;;;;0.82;69.77;96374.94;5050088;28;20578;-69
2021/03/09 00:47:26;;;;;;;21.30;11.30;;;;;;;0.82;69.59;96385.66;5049039;28;20045;-69
2021/03/09 00:49:54;;;;;;;19.38;10.88;;;;;;;0.78;69.47;96385.38;5050099;28;20266;-68
2021/03/09 00:52:20;;;;;;;19.60;11.07;;;;;;;0.77;69.53;96381.06;5048833;28;20051;-68
2021/03/09 00:54:46;;;;;;;18.88;11.60;;;;;;;0.76;69.21;96384.81;5050478;28;20132;-68
2021/03/09 00:57:12;;;;;;;18.55;11.18;;;;;;;0.72;69.18;96380.22;5048722;28;20049;-68
2021/03/09 00:59:38;;;;;;;21.98;11.75;;;;;;;0.68;69.34;96376.41;5050175;28;20040;-69
2021/03/09 01:02:04;;;;;;;19.45;10.90;;;;;;;0.63;69.59;96377.19;5048779;28;20557;-68
2021/03/09 01:04:30;;;;;;;21.27;11.60;;;;;;;0.60;69.76;96376.88;5049895;28;20049;-68
2021/03/09 01:06:57;;;;;;;20.80;11.30;;;;;;;0.57;69.88;96382.75;5049590;28;20103;-69
2021/03/09 01:09:23;;;;;;;20.00;12.10;;;;;;;0.56;69.82;96379.25;5049162;28;20570;-68
2021/03/09 01:11:49;;;;;;;19.88;12.15;;;;;;;0.53;69.80;96371.75;5049699;28;20049;-68
2021/03/09 01:14:15;;;;;;;21.75;11.82;;;;;;;0.52;69.73;96376.28;5048618;28;20049;-68
2021/03/09 01:16:41;;;;;;;21.15;11.50;;;;;;;0.50;69.91;96372.22;5050033;28;20037;-68
2021/03/09 01:19:07;;;;;;;19.30;11.30;;;;;;;0.47;69.96;96365.53;5051869;28;20052;-68
2021/03/09 01:21:33;;;;;;;19.92;11.70;;;;;;;0.45;69.93;96364.94;5053975;28;20128;-68
2021/03/09 01:24:00;;;;;;;20.08;11.32;;;;;;;0.45;69.99;96364.16;5052605;28;20544;-68
2021/03/09 01:26:27;;;;;;;23.73;11.40;;;;;;;0.43;69.99;96366.28;5053206;28;20669;-68
2021/03/09 01:28:53;;;;;;;19.95;11.57;;;;;;;0.39;69.96;96360.63;5052381;28;20056;-70
2021/03/09 01:31:19;;;;;;;22.70;12.02;;;;;;;0.38;70.21;96366.22;5052665;28;20068;-68
2021/03/09 01:33:45;;;;;;;21.30;11.95;;;;;;;0.35;70.18;96358.69;5053052;28;20044;-68
2021/03/09 01:36:11;;;;;;;20.25;11.95;;;;;;;0.34;70.18;96355.22;5052307;28;20068;-70
2021/03/09 01:38:37;;;;;;;20.70;12.07;;;;;;;0.30;70.28;96350.59;5053336;28;20060;-70
2021/03/09 01:41:04;;;;;;;21.70;12.13;;;;;;;0.29;70.45;96346.31;5064026;28;20075;-70
2021/03/09 01:43:31;;;;;;;24.15;12.40;;;;;;;0.23;70.49;96343.59;5073422;28;20052;-68
2021/03/09 01:45:58;;;;;;;20.35;11.05;;;;;;;0.23;70.48;96329.38;5072156;28;20045;-70
2021/03/09 01:48:30;;;;;;;23.83;12.15;;;;;;;0.20;70.29;96336.03;5070663;28;20052;-70
2021/03/09 01:50:56;;;;;;;20.58;11.77;;;;;;;0.17;70.64;96325.84;5072004;28;20063;-70
2021/03/09 01:53:22;;;;;;;21.00;11.55;;;;;;;0.16;70.82;96329.59;5052180;28;20529;-68
2021/03/09 01:55:48;;;;;;;23.17;12.18;;;;;;;0.14;70.94;96315.63;5052355;28;20053;-68
2021/03/09 01:58:17;;;;;;;21.50;11.27;;;;;;;0.14;70.91;96322.88;5052072;28;20049;-68
2021/03/09 02:00:43;;;;;;;20.58;11.75;;;;;;;0.14;70.87;96321.00;5052616;28;20045;-68
2021/03/09 02:03:09;;;;;;;21.55;12.00;;;;;;;0.14;70.72;96314.81;5051445;28;20527;-68
2021/03/09 02:05:36;;;;;;;20.17;11.57;;;;;;;0.13;70.73;96315.91;5053086;28;20041;-68
2021/03/09 02:08:03;;;;;;;19.00;10.95;;;;;;;0.09;70.54;96299.50;5051361;28;20049;-69
2021/03/09 02:10:30;;;;;;;20.33;10.90;;;;;;;0.08;70.46;96305.94;5052950;28;20045;-68
2021/03/09 02:13:06;;;;;;;22.42;11.98;;;;;;;0.06;70.32;96291.19;5051682;28;20045;-68
2021/03/09 02:15:37;;;;;;;20.65;11.45;;;;;;;0.04;70.30;96298.66;5052905;28;20492;-68
2021/03/09 02:18:13;;;;;;;21.35;12.13;;;;;;;0.01;70.79;96299.19;5063181;28;20048;-68
2021/03/09 02:21:25;;;;;;;23.40;12.07;;;;;;;0.00;71.28;96295.69;5071675;28;20045;-70
2021/03/09 02:24:18;;;;;;;22.67;12.13;;;;;;;-0.01;71.48;96294.06;5019339;28;20037;-70
2021/03/09 02:27:20;;;;;;;20.33;11.95;;;;;;;-0.01;71.15;96300.22;5032178;28;20121;-68
2021/03/09 02:30:13;;;;;;;22.90;11.77;;;;;;;-0.06;71.03;96284.09;5049955;28;20044;-68
2021/03/09 02:32:41;;;;;;;;;;;;;;;-0.10;70.86;96292.91;5052721;28;20048;-68
2021/03/09 02:35:11;;;;;;;18.25;10.50;;;;;;;-0.17;70.75;96289.59;5050769;28;19921;-68
2021/03/09 02:37:39;;;;;;;21.48;11.70;;;;;;;-0.18;70.89;96288.00;5052107;28;20041;-68
2021/03/09 02:40:10;;;;;;;21.33;11.35;;;;;;;-0.20;71.05;96287.44;5050988;28;20519;-68
2021/03/09 02:42:45;;;;;;;23.38;12.15;;;;;;;-0.21;71.24;96283.13;5051763;28;20041;-68
2021/03/09 02:45:15;;;;;;;20.60;11.80;;;;;;;-0.23;71.18;96278.03;5051735;28;20049;-68
2021/03/09 02:47:45;;;;;;;24.35;12.43;;;;;;;-0.23;71.43;96282.59;5058849;28;20040;-68
2021/03/09 02:50:12;;;;;;;22.67;13.18;;;;;;;-0.25;71.42;96284.72;5071528;28;20522;-70
2021/03/09 02:52:41;;;;;;;22.77;12.38;;;;;;;-0.27;71.41;96285.75;5057234;28;20091;-68
2021/03/09 02:55:12;;;;;;;21.90;12.80;;;;;;;-0.33;71.43;96278.72;5051579;28;20503;-70
2021/03/09 02:57:40;;;;;;;21.83;13.27;;;;;;;-0.38;71.49;96284.03;5051033;28;20098;-68
2021/03/09 03:00:08;;;;;;;23.15;13.07;;;;;;;-0.44;71.63;96282.34;5050960;28;20440;-70
2021/03/09 03:02:37;;;;;;;23.67;12.77;;;;;;;-0.48;71.71;96275.06;5051356;28;20048;-70
2021/03/09 03:05:05;;;;;;;25.80;13.20;;;;;;;-0.51;71.94;96273.72;5050499;28;20471;-70
2021/03/09 03:07:33;;;;;;;24.50;12.32;;;;;;;-0.52;72.29;96280.13;5051704;28;20037;-67
2021/03/09 03:10:00;;;;;;;24.42;12.50;;;;;;;-0.53;72.29;96279.28;5050438;28;20045;-67
2021/03/09 03:12:30;;;;;;;23.58;12.80;;;;;;;-0.54;72.49;96277.69;5051224;28;20044;-70
2021/03/09 03:14:57;;;;;;;27.40;13.90;;;;;;;-0.53;72.67;96278.50;5050489;28;20052;-70
2021/03/09 03:17:24;;;;;;;28.15;14.57;;;;;;;-0.50;72.91;96280.69;5056255;28;20045;-70
2021/03/09 03:19:51;;;;;;;23.95;13.82;;;;;;;-0.47;73.17;96282.88;5070393;28;20086;-70
2021/03/09 03:22:18;;;;;;;28.67;14.30;;;;;;;-0.46;73.20;96268.44;5059056;28;20041;-70
2021/03/09 03:24:45;;;;;;;27.00;14.25;;;;;;;-0.43;73.50;96278.63;5050930;28;20037;-70
2021/03/09 03:27:14;;;;;;;27.08;13.13;;;;;;;-0.41;73.20;96287.22;5049843;28;20095;-67
2021/03/09 03:29:40;;;;;;;25.40;12.45;;;;;;;-0.41;72.92;96281.88;5051092;28;20045;-70
2021/03/09 03:32:07;;;;;;;25.50;13.32;;;;;;;-0.41;72.84;96281.88;5049773;28;20102;-70
2021/03/09 03:34:33;;;;;;;29.23;13.82;;;;;;;-0.39;72.83;96284.28;5051219;28;20486;-67
2021/03/09 03:37:00;;;;;;;28.42;13.95;;;;;;;-0.41;72.84;96281.06;5049950;28;20416;-70
2021/03/09 03:39:27;;;;;;;25.70;14.43;;;;;;;-0.41;72.79;96281.88;5050394;28;20045;-70
2021/03/09 03:41:53;;;;;;;27.13;13.90;;;;;;;-0.44;73.08;96279.69;5050054;28;20053;-67
2021/03/09 03:44:19;;;;;;;28.50;14.82;;;;;;;-0.42;73.10;96279.41;5050289;28;20512;-67
2021/03/09 03:46:45;;;;;;;27.40;14.32;;;;;;;-0.42;72.72;96280.22;5046775;28;20119;-70
2021/03/09 03:49:11;;;;;;;29.58;14.43;;;;;;;-0.41;72.37;96281.06;5050195;28;20505;-67
2021/03/09 03:51:44;;;;;;;26.48;13.77;;;;;;;-0.43;72.17;96283.16;5043875;28;20107;-70
2021/03/09 03:54:22;;;;;;;29.15;14.43;;;;;;;-0.45;72.17;96280.75;5049501;28;20040;-70
2021/03/09 03:56:53;;;;;;;29.52;14.05;;;;;;;-0.46;72.26;96281.81;5050868;28;20049;-69
2021/03/09 03:59:25;;;;;;;29.45;15.25;;;;;;;-0.47;72.33;96272.16;5049563;28;20049;-69
2021/03/09 04:01:53;;;;;;;28.85;15.30;;;;;;;-0.47;72.55;96265.97;5050790;28;20045;-69
2021/03/09 04:04:22;;;;;;;31.73;15.63;;;;;;;-0.48;72.57;96267.03;5049832;28;20110;-69
2021/03/09 04:06:49;;;;;;;28.17;14.43;;;;;;;-0.47;72.68;96265.97;5050372;28;20052;-69
2021/03/09 04:09:17;;;;;;;32.50;15.15;;;;;;;-0.48;72.85;96265.19;5049657;28;20049;-69
2021/03/09 04:11:46;;;;;;;29.80;15.35;;;;;;;-0.47;72.73;96268.66;5049901;28;20479;-69
2021/03/09 04:14:12;;;;;;;27.35;15.02;;;;;;;-0.47;72.73;96271.34;5049950;28;20060;-69
2021/03/09 04:16:41;;;;;;;30.38;15.50;;;;;;;-0.49;72.51;96268.91;5049221;28;20067;-69
2021/03/09 04:19:07;;;;;;;29.08;14.60;;;;;;;-0.50;72.38;96272.66;5050505;28;20045;-69
2021/03/09 04:21:36;;;;;;;28.08;15.40;;;;;;;-0.51;72.17;96265.69;5049068;28;20044;-69
2021/03/09 04:24:05;;;;;;;29.42;14.75;;;;;;;-0.53;72.12;96268.59;5049900;28;20041;-69
2021/03/09 04:26:32;;;;;;;29.65;14.55;;;;;;;-0.53;71.99;96270.47;5049543;28;20052;-69
2021/03/09 04:28:59;;;;;;;28.42;14.55;;;;;;;-0.55;72.24;96265.38;5049841;28;20049;-69
2021/03/09 04:31:26;;;;;;;30.30;15.93;;;;;;;-0.56;72.48;96266.44;5049417;28;20403;-69
2021/03/09 04:33:53;;;;;;;29.17;14.50;;;;;;;-0.57;72.54;96266.69;5049782;28;20041;-69
2021/03/09 04:36:20;;;;;;;31.25;15.60;;;;;;;-0.57;72.62;96256.00;5049649;28;20057;-69
2021/03/09 04:38:47;;;;;;;36.35;16.25;;;;;;;-0.60;72.82;96257.28;5049157;28;20045;-69
2021/03/09 04:41:13;;;;;;;30.75;15.68;;;;;;;-0.61;72.73;96260.22;5050180;28;20060;-70
2021/03/09 04:43:40;;;;;;;29.63;15.00;;;;;;;-0.62;72.65;96261.28;5049325;28;20061;-69
2021/03/09 04:46:06;;;;;;;28.08;14.60;;;;;;;-0.63;72.59;96263.13;5050102;28;20045;-69
2021/03/09 04:48:32;;;;;;;26.92;14.32;;;;;;;-0.63;72.66;96267.66;5049426;28;20045;-69
2021/03/09 04:51:05;;;;;;;28.75;14.65;;;;;;;-0.64;72.53;96266.06;5050120;28;20529;-70
2021/03/09 04:53:34;;;;;;;36.13;15.68;;;;;;;-0.65;72.52;96264.44;5053360;28;20044;-70
2021/03/09 04:56:01;;;;;;;33.45;16.48;;;;;;;-0.67;72.76;96271.91;5053346;28;20060;-69
2021/03/09 04:58:27;;;;;;;31.33;15.13;;;;;;;-0.67;72.82;96266.56;5053674;28;20047;-69
2021/03/09 05:00:56;;;;;;;29.13;14.27;;;;;;;-0.68;72.37;96268.44;5053878;28;20049;-69
2021/03/09 05:03:23;;;;;;;31.92;15.20;;;;;;;-0.70;72.17;96265.19;5053854;28;20094;-70
2021/03/09 05:05:49;;;;;;;31.30;16.00;;;;;;;-0.72;72.02;96270.00;5052964;28;20135;-69
2021/03/09 05:08:16;;;;;;;28.48;16.23;;;;;;;-0.74;71.96;96265.94;5053619;28;20115;-69
2021/03/09 05:10:42;;;;;;;29.00;15.95;;;;;;;-0.76;71.92;96262.72;5053818;28;20496;-69
2021/03/09 05:13:08;;;;;;;30.83;14.85;;;;;;;-0.78;71.75;96268.31;5053125;28;20041;-69
2021/03/09 05:15:34;;;;;;;28.35;13.95;;;;;;;-0.79;71.90;96264.81;5053104;28;20412;-69
2021/03/09 05:18:01;;;;;;;33.03;14.98;;;;;;;-0.81;71.94;96266.94;5053219;28;20045;-69
2021/03/09 05:20:27;;;;;;;28.80;14.93;;;;;;;-0.83;71.91;96261.03;5053152;28;20048;-69
2021/03/09 05:22:53;;;;;;;27.55;13.50;;;;;;;-0.86;72.21;96258.84;5052245;28;20515;-69
2021/03/09 05:25:19;;;;;;;27.77;13.68;;;;;;;-0.88;72.13;96260.97;5053222;28;20068;-69
2021/03/09 05:27:47;;;;;;;29.05;14.30;;;;;;;-0.91;72.16;96255.28;5051751;28;20041;-69
2021/03/09 05:30:15;;;;;;;29.80;15.32;;;;;;;-0.94;72.55;96261.97;5053172;28;20126;-70
2021/03/09 05:32:41;;;;;;;29.65;14.75;;;;;;;-0.95;72.65;96248.81;5052345;28;20124;-69
2021/03/09 05:35:09;;;;;;;32.72;14.63;;;;;;;-0.95;72.58;96260.31;5052891;28;20052;-69
2021/03/09 05:37:35;;;;;;;30.92;14.50;;;;;;;-0.95;72.46;96265.66;5052229;28;20049;-69
2021/03/09 05:40:03;;;;;;;26.90;13.82;;;;;;;-0.96;72.24;96263.25;5052284;28;20040;-70
2021/03/09 05:42:29;;;;;;;30.17;15.10;;;;;;;-0.99;72.54;96267.25;5052590;28;20045;-69
2021/03/09 05:44:57;;;;;;;29.55;14.05;;;;;;;-1.02;72.82;96262.38;5052214;28;20103;-69
2021/03/09 05:47:23;;;;;;;32.85;15.88;;;;;;;-1.03;72.92;96263.44;5052466;28;20102;-69
2021/03/09 05:49:49;;;;;;;30.38;15.48;;;;;;;-1.08;72.69;96266.03;5051731;28;20049;-69
2021/03/09 05:52:18;;;;;;;32.20;16.10;;;;;;;-1.14;72.72;96275.84;5060249;28;20102;-69
2021/03/09 05:54:44;;;;;;;33.53;17.00;;;;;;;-1.16;72.77;96269.13;5071866;28;20048;-69
2021/03/09 05:57:10;;;;;;;34.67;17.25;;;;;;;-1.19;72.75;96272.28;5068459;28;20551;-69
2021/03/09 05:59:36;;;;;;;41.72;17.60;;;;;;;-1.21;72.69;96274.38;5052587;28;20049;-69
2021/03/09 06:02:03;;;;;;;31.67;17.80;;;;;;;-1.21;73.10;96282.41;5052382;28;20044;-69
2021/03/09 06:04:32;;;;;;;35.92;17.60;;;;;;;-1.17;73.18;96275.50;5052506;28;20041;-69
2021/03/09 06:06:58;;;;;;;36.03;17.13;;;;;;;-1.11;73.54;96279.88;5052155;28;20124;-69
2021/03/09 06:09:41;;;;;;;34.78;16.80;;;;;;;-1.07;73.64;96273.00;5051943;28;20041;-69
2021/03/09 06:12:18;;;;;;;24.55;12.18;;;;;;;-1.00;73.80;96270.94;5051130;28;20489;-69
2021/03/09 06:14:45;;;;;;;38.67;18.05;;;;;;;-0.93;73.79;96282.28;5053071;28;20041;-69
2021/03/09 06:17:13;;;;;;;35.80;16.98;;;;;;;-0.88;73.85;96277.00;5051307;28;20053;-69
2021/03/09 06:19:45;;;;;;;34.25;16.85;;;;;;;-0.82;73.79;96276.00;5052453;28;20041;-69
2021/03/09 06:22:12;;;;;;;37.88;18.92;;;;;;;-0.76;73.71;96278.75;5058637;28;20048;-69
2021/03/09 06:24:38;;;;;;;37.80;18.38;;;;;;;-0.71;73.79;96271.59;5071570;28;20056;-69
2021/03/09 06:27:26;;;;;;;40.90;18.73;;;;;;;-0.62;73.76;96280.00;5068122;28;20106;-69
2021/03/09 06:29:52;;;;;;;34.08;17.13;;;;;;;-0.56;73.74;96279.81;5051153;28;20056;-69
2021/03/09 06:32:18;;;;;;;39.88;19.48;;;;;;;-0.48;73.99;96283.91;5051930;28;20052;-69
2021/03/09 06:34:44;;;;;;;37.25;17.77;;;;;;;-0.40;74.07;96283.47;5051371;28;20045;-69
2021/03/09 06:37:13;;;;;;;31.48;16.80;;;;;;;-0.32;73.88;96283.03;5051775;28;20045;-69
2021/03/09 06:39:48;;;;;;;34.35;16.73;;;;;;;-0.24;73.71;96283.66;5051212;28;20052;-69
2021/03/09 06:42:16;;;;;;;37.05;17.70;;;;;;;-0.19;73.78;96283.72;5051226;28;20048;-69
2021/03/09 06:44:48;;;;;;;35.45;18.25;;;;;;;-0.09;74.04;96281.16;5051648;28;20099;-69
2021/03/09 06:47:14;;;;;;;36.05;17.75;;;;;;;-0.03;74.36;96278.25;5050847;28;20057;-69
2021/03/09 06:49:51;;;;;;;38.28;18.98;;;;;;;0.02;74.19;96277.50;5051860;28;20064;-69
2021/03/09 06:52:19;;;;;;;36.58;18.90;;;;;;;0.16;74.14;96276.03;5058426;28;20044;-69
2021/03/09 06:54:47;;;;;;;39.63;18.67;;;;;;;0.22;74.28;96285.72;5072202;28;20051;-69
2021/03/09 06:57:13;;;;;;;35.17;18.00;;;;;;;0.30;74.08;96278.28;5065729;28;20041;-69
2021/03/09 06:59:43;;;;;;;37.28;18.15;;;;;;;0.38;73.46;96288.56;5051609;28;20045;-68
2021/03/09 07:02:10;;;;;;;38.10;17.60;;;;;;;0.47;73.16;96287.00;5050300;28;20055;-69
2021/03/09 07:04:38;;;;;;;35.63;17.90;;;;;;;0.56;72.67;96288.16;5051042;28;20115;-69
2021/03/09 07:07:05;;;;;;;33.00;17.30;;;;;;;0.71;72.63;96296.31;5050914;28;20053;-72
2021/03/09 07:09:33;;;;;;;33.63;16.73;;;;;;;0.83;72.38;96289.97;5057782;28;20041;-73
2021/03/09 07:12:02;;;;;;;35.75;18.55;;;;;;;0.86;71.23;96300.97;5067226;28;20041;-73
2021/03/09 07:14:30;;;;;;;37.90;16.55;;;;;;;0.95;70.78;96298.63;5066678;28;20037;-73
2021/03/09 07:17:01;;;;;;;37.58;17.60;;;;;;;1.06;70.78;96304.88;5054183;28;20040;-73
2021/03/09 07:19:35;;;;;;;31.80;16.33;;;;;;;1.16;70.16;96305.75;5048872;28;20037;-73
2021/03/09 07:22:03;;;;;;;33.05;17.15;;;;;;;1.29;69.95;96302.59;5048521;28;20107;-73
2021/03/09 07:24:30;;;;;;;35.15;16.52;;;;;;;1.52;68.91;96293.31;5049010;28;20041;-73
2021/03/09 07:27:03;;;;;;;35.53;17.50;;;;;;;1.90;67.97;96303.94;5049347;28;20059;-74
2021/03/09 07:29:35;;;;;;;36.03;17.38;;;;;;;2.33;67.07;96298.13;5066202;28;20044;-74
2021/03/09 07:32:08;;;;;;;26.58;12.70;;;;;;;2.80;65.80;96305.13;5062209;28;20040;-73
2021/03/09 07:34:35;;;;;;;31.85;15.90;;;;;;;3.27;64.58;96304.00;5048318;28;20514;-73
2021/03/09 07:37:02;;;;;;;30.83;15.05;;;;;;;3.48;63.53;96304.75;5067060;28;20040;-74
2021/03/09 07:39:28;;;;;;;30.55;16.17;;;;;;;3.46;62.65;96306.13;5053978;28;20048;-74
2021/03/09 07:41:55;;;;;;;27.60;14.45;;;;;;;3.31;61.63;96302.38;5065597;28;20059;-74
2021/03/09 07:44:22;;;;;;;29.50;15.88;;;;;;;3.30;62.64;96306.16;5051811;28;20052;-74
2021/03/09 07:46:48;;;;;;;31.90;17.38;;;;;;;3.71;62.14;96303.34;5047152;28;20053;-73
2021/03/09 07:49:16;;;;;;;33.60;15.63;;;;;;;4.30;61.75;96299.81;5048070;28;20510;-74
2021/03/09 07:52:10;;;;;;;30.90;16.05;;;;;;;4.82;58.50;96303.75;5049401;28;20052;-74
2021/03/09 07:54:37;;;;;;;30.50;15.50;;;;;;;5.20;56.50;96293.16;5048074;28;20476;-72
2021/03/09 07:57:22;;;;;;;27.30;14.95;;;;;;;5.54;55.54;96287.69;5060153;28;20052;-72
2021/03/09 07:59:56;;;;;;;27.60;14.60;;;;;;;5.73;54.43;96285.03;5047378;28;20576;-72
2021/03/09 08:02:42;;;;;;;28.15;14.98;;;;;;;5.85;52.78;96288.16;5048462;28;20132;-72
2021/03/09 08:05:11;;;;;;;29.23;13.95;;;;;;;6.20;52.54;96283.38;5049954;28;20186;-71
2021/03/09 08:07:55;;;;;;;25.42;14.80;;;;;;;6.59;51.16;96285.00;5049412;28;20052;-71
2021/03/09 08:10:38;;;;;;;24.63;13.98;;;;;;;6.97;50.60;96291.97;5050342;28;20934;-71
2021/03/09 08:13:25;;;;;;;26.30;14.02;;;;;;;7.45;50.66;96282.72;5049427;28;20045;-71
2021/03/09 08:15:51;;;;;;;25.45;14.25;;;;;;;7.84;48.99;96293.09;5049943;28;20455;-71
2021/03/09 08:18:41;;;;;;;23.67;13.85;;;;;;;8.26;46.84;96288.44;5049964;28;20049;-71
2021/03/09 08:21:08;;;;;;;25.17;14.48;;;;;;;8.69;46.14;96290.75;5049192;28;20500;-71
2021/03/09 08:23:54;;;;;;;24.95;14.13;;;;;;;9.17;47.51;96282.78;5050445;28;20095;-71
2021/03/09 08:26:50;;;;;;;25.40;14.15;;;;;;;9.45;45.32;96286.16;5050660;28;20052;-71
2021/03/09 08:29:37;;;;;;;28.30;13.90;;;;;;;9.85;43.22;96284.22;5009955;28;20136;-71
2021/03/09 08:32:38;;;;;;;25.63;14.25;;;;;;;10.17;42.95;96285.75;5029349;28;20055;-72
2021/03/09 08:35:38;;;;;;;24.02;13.70;;;;;;;10.45;42.65;96278.16;5033618;28;20141;-72
2021/03/09 08:38:15;;;;;;;21.98;14.27;;;;;;;10.55;40.47;96279.78;5033593;28;20088;-72
2021/03/09 08:41:10;;;;;;;25.63;14.48;;;;;;;10.55;40.43;96282.50;5034569;28;20409;-72
2021/03/09 08:43:38;;;;;;;25.38;15.35;;;;;;;10.64;40.54;96277.84;5033294;28;20461;-72
2021/03/09 08:46:06;;;;;;;22.55;13.80;;;;;;;10.77;41.35;96286.19;5034343;28;20060;-72
2021/03/09 08:48:53;;;;;;;24.30;14.40;;;;;;;10.86;40.36;96279.63;5033643;28;20038;-72
2021/03/09 08:51:47;;;;;;;23.85;14.68;;;;;;;10.78;41.11;96282.34;5037639;28;20049;-72
2021/03/09 08:54:39;;;;;;;27.33;15.73;;;;;;;10.78;40.46;96279.63;5073937;28;20047;-72
2021/03/09 08:57:08;;;;;;;25.63;14.95;;;;;;;10.67;40.65;96276.41;5069536;28;20098;-72
2021/03/09 08:59:35;;;;;;;22.92;14.60;;;;;;;10.38;42.69;96280.53;5054223;28;20492;-72
2021/03/09 09:02:10;;;;;;;23.98;15.02;;;;;;;10.48;40.56;96279.44;5053124;28;20389;-72
2021/03/09 09:04:38;;;;;;;23.08;14.98;;;;;;;10.51;41.19;96284.25;5053606;28;20047;-71
2021/03/09 09:07:21;;;;;;;22.98;14.93;;;;;;;10.35;42.01;96272.25;5053262;28;20053;-72
2021/03/09 09:09:49;;;;;;;24.85;14.80;;;;;;;10.24;41.11;96274.47;5053068;28;20096;-72
2021/03/09 09:12:24;;;;;;;23.85;14.55;;;;;;;9.90;41.89;96277.84;5053424;28;20055;-73
2021/03/09 09:15:09;;;;;;;28.63;15.40;;;;;;;9.95;41.42;96277.72;5052744;28;20045;-74
2021/03/09 09:17:36;;;;;;;23.05;14.23;;;;;;;9.93;43.21;96271.78;5053648;28;20041;-72
2021/03/09 09:20:04;;;;;;;23.83;14.43;;;;;;;9.93;41.77;96271.78;5052709;28;20416;-72
2021/03/09 09:22:31;;;;;;;23.67;14.57;;;;;;;9.87;42.75;96275.78;5052665;28;20049;-72
2021/03/09 09:24:59;;;;;;;26.38;14.55;;;;;;;9.76;41.95;96274.44;5053288;28;20068;-73
2021/03/09 09:27:26;;;;;;;24.88;14.68;;;;;;;9.74;42.12;96268.53;5053016;28;20527;-72
2021/03/09 09:29:56;;;;;;;24.38;15.40;;;;;;;9.56;41.91;96271.19;5051937;28;20045;-72
2021/03/09 09:32:22;;;;;;;25.20;14.40;;;;;;;9.69;44.42;96269.47;5051874;28;20045;-72
2021/03/09 09:34:57;;;;;;;24.40;14.85;;;;;;;9.83;42.56;96269.34;5052427;28;20045;-72
2021/03/09 09:37:23;;;;;;;24.50;15.00;;;;;;;9.75;41.89;96273.63;5051532;28;20064;-72
2021/03/09 09:39:49;;;;;;;28.60;14.57;;;;;;;9.77;42.32;96270.63;5053220;28;20053;-72
2021/03/09 09:42:19;;;;;;;23.48;14.40;;;;;;;9.96;42.06;96262.97;5050861;28;20052;-72
2021/03/09 09:44:46;;;;;;;26.30;14.93;;;;;;;10.09;42.25;96264.78;5052874;28;20048;-72
2021/03/09 09:47:14;;;;;;;26.50;14.48;;;;;;;10.24;40.03;96258.13;5052594;28;20052;-72
2021/03/09 09:49:43;;;;;;;23.65;13.93;;;;;;;10.34;42.23;96257.81;5052392;28;20404;-72
2021/03/09 09:52:14;;;;;;;24.17;14.23;;;;;;;10.48;41.10;96259.59;5061318;28;20599;-72
2021/03/09 09:54:41;;;;;;;22.33;13.13;;;;;;;10.59;40.56;96263.59;5072282;28;20389;-73
2021/03/09 09:57:08;;;;;;;20.30;13.15;;;;;;;10.67;40.40;96260.88;5069257;28;20080;-72
2021/03/09 09:59:35;;;;;;;19.42;12.88;;;;;;;10.77;39.30;96253.50;5052029;28;20111;-73
2021/03/09 10:02:16;;;;;;;22.63;13.75;;;;;;;10.90;39.16;96258.78;5052235;28;20535;-72
2021/03/09 10:04:42;;;;;;;21.33;13.25;;;;;;;11.10;39.33;96260.03;5052313;28;20065;-73
2021/03/09 10:07:16;;;;;;;24.13;13.25;;;;;;;11.30;38.87;96255.03;5051877;28;20049;-72
2021/03/09 10:10:15;;;;;;;21.40;12.88;;;;;;;11.32;37.36;96260.94;5052656;28;20044;-73
2021/03/09 10:12:41;;;;;;;21.92;13.68;;;;;;;11.14;39.38;96252.81;5051867;28;20041;-72
2021/03/09 10:15:10;;;;;;;20.63;12.88;;;;;;;11.07;37.52;96252.53;5052102;28;20045;-72
2021/03/09 10:17:37;;;;;;;23.40;12.52;;;;;;;11.04;37.90;96247.72;5051761;28;20041;-72
2021/03/09 10:20:16;;;;;;;21.20;13.32;;;;;;;11.00;38.89;96254.13;5051747;28;20051;-72
2021/03/09 10:22:42;;;;;;;19.05;12.13;;;;;;;10.95;37.60;96255.09;5052727;28;20484;-71
2021/03/09 10:25:09;;;;;;;22.20;13.57;;;;;;;10.86;39.58;96252.41;5051051;28;20052;-72
2021/03/09 10:27:35;;;;;;;21.20;13.50;;;;;;;10.84;38.70;96251.91;5051823;28;20454;-72
2021/03/09 10:30:01;;;;;;;19.35;12.63;;;;;;;10.68;38.59;96251.59;5049862;28;20045;-71
2021/03/09 10:32:28;;;;;;;17.23;12.25;;;;;;;10.45;39.25;96248.22;5052325;28;20403;-75
2021/03/09 10:34:56;;;;;;;21.88;13.57;;;;;;;10.35;40.21;96245.81;5051368;28;20049;-74
2021/03/09 10:37:32;;;;;;;18.50;12.63;;;;;;;10.42;40.92;96237.97;5051735;28;20497;-74
2021/03/09 10:40:00;;;;;;;18.77;12.00;;;;;;;10.52;39.97;96247.75;5051208;28;20048;-74
2021/03/09 10:42:27;;;;;;;18.20;11.82;;;;;;;10.45;38.90;96241.97;5051411;28;20041;-74
2021/03/09 10:44:53;;;;;;;17.45;12.18;;;;;;;10.29;38.35;96238.94;5050819;28;20102;-74
2021/03/09 10:47:20;;;;;;;19.42;12.27;;;;;;;10.12;39.12;96234.22;5050577;28;20049;-74
2021/03/09 10:49:47;;;;;;;18.67;11.45;;;;;;;10.08;40.12;96233.25;5050867;28;20047;-74
2021/03/09 10:52:13;;;;;;;16.83;11.25;;;;;;;10.08;40.02;96233.25;5058573;28;20052;-74
2021/03/09 10:54:39;;;;;;;18.85;11.65;;;;;;;10.04;38.12;96236.94;5072333;28;20045;-73
2021/03/09 10:57:06;;;;;;;14.93;9.95;;;;;;;10.02;38.15;96239.94;5067079;28;20055;-74
2021/03/09 10:59:33;;;;;;;16.33;11.13;;;;;;;9.98;40.06;96236.28;5052365;28;20051;-73
2021/03/09 11:01:59;;;;;;;15.65;10.02;;;;;;;10.08;39.01;96236.00;5050790;28;20041;-74
2021/03/09 11:04:25;;;;;;;13.95;9.35;;;;;;;10.10;38.73;96232.94;5051497;28;20045;-73
2021/03/09 11:06:53;;;;;;;13.77;8.85;;;;;;;10.10;37.18;96241.91;5050946;28;20060;-73
2021/03/09 11:09:19;;;;;;;18.10;9.93;;;;;;;10.08;39.58;96232.47;5051001;28;20055;-73
2021/03/09 11:11:45;;;;;;;9.65;6.30;;;;;;;10.15;35.55;96238.22;5051434;28;20045;-73
2021/03/09 11:14:11;;;;;;;14.90;8.82;;;;;;;10.11;37.05;96231.81;5050214;28;20040;-73
2021/03/09 11:16:37;;;;;;;16.55;8.20;;;;;;;10.15;37.53;96233.59;5051523;28;20044;-73
2021/03/09 11:19:04;;;;;;;11.40;7.63;;;;;;;10.18;36.30;96232.97;5050189;28;20041;-71
2021/03/09 11:21:30;;;;;;;13.48;8.02;;;;;;;10.20;37.97;96225.28;5051046;28;20048;-73
2021/03/09 11:23:57;;;;;;;10.80;7.00;;;;;;;10.20;34.99;96225.28;5050271;28;20041;-73
2021/03/09 11:26:24;;;;;;;10.90;6.55;;;;;;;10.14;34.52;96232.00;5046835;28;20102;-74
2021/03/09 11:28:52;;;;;;;11.82;8.15;;;;;;;10.07;34.80;96226.19;5046881;28;20045;-71
2021/03/09 11:31:20;;;;;;;12.35;7.28;;;;;;;10.01;35.93;96227.47;5046854;28;20056;-74
2021/03/09 11:33:46;;;;;;;14.18;8.20;;;;;;;9.97;35.86;96221.09;5048042;28;20045;-74